sensor_id;sensor_type;location;lat;lon;timestamp;P1;P2;P0
46573;PMS5003;32299;53.366;-1.544;2022-12-11T00:02:25;89;67;
46573;PMS5003;32299;53.366;-1.544;2022-12-11T00:04:53;108;74;
46573;PMS5003;32299;53.366;-1.544;2022-12-11T00:07:20;95;71;
46573;PMS5003;32299;53.366;-1.544;2022-12-11T00:09:48;96;68;
46573;PMS5003;32299;53.366;-1.544;2022-12-11T00:12:15;99;70;
46573;PMS5003;32299;53.366;-1.544;2022-12-11T00:14:42;79;64;
46573;PMS5003;32299;53.366;-1.544;2022-12-11T00:17:10;78;69;
46573;PMS5003;32299;53.366;-1.544;2022-12-11T00:19:38;91;65;
46573;PMS5003;32299;53.366;-1.544;2022-12-11T00:22:05;90;74;
46573;PMS5003;32299;53.366;-1.544;2022-12-11T00:24:31;88;68;
46573;PMS5003;32299;53.366;-1.544;2022-12-11T00:27:00;108;70;
46573;PMS5003;32299;53.366;-1.544;2022-12-11T00:29:27;111;74;
46573;PMS5003;32299;53.366;-1.544;2022-12-11T00:31:54;101;71;
46573;PMS5003;32299;53.366;-1.544;2022-12-11T00:34:21;93;67;
46573;PMS5003;32299;53.366;-1.544;2022-12-11T00:36:48;103;72;
46573;PMS5003;32299;53.366;-1.544;2022-12-11T00:39:15;88;71;
46573;PMS5003;32299;53.366;-1.544;2022-12-11T00:41:43;95;76;
46573;PMS5003;32299;53.366;-1.544;2022-12-11T00:44:10;91;69;
46573;PMS5003;32299;53.366;-1.544;2022-12-11T00:46:38;103;71;
46573;PMS5003;32299;53.366;-1.544;2022-12-11T00:49:05;106;67;
46573;PMS5003;32299;53.366;-1.544;2022-12-11T00:51:32;111;74;
46573;PMS5003;32299;53.366;-1.544;2022-12-11T00:54:00;97;72;
46573;PMS5003;32299;53.366;-1.544;2022-12-11T00:56:27;118;76;
46573;PMS5003;32299;53.366;-1.544;2022-12-11T00:58:54;95;75;
46573;PMS5003;32299;53.366;-1.544;2022-12-11T01:01:22;75;69;
46573;PMS5003;32299;53.366;-1.544;2022-12-11T01:03:51;97;73;
46573;PMS5003;32299;53.366;-1.544;2022-12-11T01:06:20;89;76;
46573;PMS5003;32299;53.366;-1.544;2022-12-11T01:08:50;98;70;
46573;PMS5003;32299;53.366;-1.544;2022-12-11T01:11:18;88;67;
46573;PMS5003;32299;53.366;-1.544;2022-12-11T01:13:47;95;68;
46573;PMS5003;32299;53.366;-1.544;2022-12-11T01:16:14;99;70;
46573;PMS5003;32299;53.366;-1.544;2022-12-11T01:18:42;97;71;
46573;PMS5003;32299;53.366;-1.544;2022-12-11T01:21:11;99;65;
46573;PMS5003;32299;53.366;-1.544;2022-12-11T01:23:40;86;61;
46573;PMS5003;32299;53.366;-1.544;2022-12-11T01:26:08;102;72;
46573;PMS5003;32299;53.366;-1.544;2022-12-11T01:28:36;86;67;
46573;PMS5003;32299;53.366;-1.544;2022-12-11T01:31:06;101;73;
46573;PMS5003;32299;53.366;-1.544;2022-12-11T01:33:34;91;60;
46573;PMS5003;32299;53.366;-1.544;2022-12-11T01:36:05;78;56;
46573;PMS5003;32299;53.366;-1.544;2022-12-11T01:38:34;73;60;
46573;PMS5003;32299;53.366;-1.544;2022-12-11T01:41:01;68;56;
46573;PMS5003;32299;53.366;-1.544;2022-12-11T01:43:29;77;55;
46573;PMS5003;32299;53.366;-1.544;2022-12-11T01:45:56;73;57;
46573;PMS5003;32299;53.366;-1.544;2022-12-11T01:48:24;55;49;
46573;PMS5003;32299;53.366;-1.544;2022-12-11T01:50:55;69;48;
46573;PMS5003;32299;53.366;-1.544;2022-12-11T01:53:26;73;57;
46573;PMS5003;32299;53.366;-1.544;2022-12-11T01:55:57;71;49;
46573;PMS5003;32299;53.366;-1.544;2022-12-11T01:58:26;72;47;
46573;PMS5003;32299;53.366;-1.544;2022-12-11T02:00:56;61;49;
46573;PMS5003;32299;53.366;-1.544;2022-12-11T02:03:26;67;48;
46573;PMS5003;32299;53.366;-1.544;2022-12-11T02:05:53;60;45;
46573;PMS5003;32299;53.366;-1.544;2022-12-11T02:08:23;64;55;
46573;PMS5003;32299;53.366;-1.544;2022-12-11T02:10:55;64;51;
46573;PMS5003;32299;53.366;-1.544;2022-12-11T02:13:30;67;51;
46573;PMS5003;32299;53.366;-1.544;2022-12-11T02:16:05;68;54;
46573;PMS5003;32299;53.366;-1.544;2022-12-11T02:18:44;80;53;
46573;PMS5003;32299;53.366;-1.544;2022-12-11T02:21:22;72;51;
46573;PMS5003;32299;53.366;-1.544;2022-12-11T02:23:55;61;51;
46573;PMS5003;32299;53.366;-1.544;2022-12-11T02:26:35;70;48;
46573;PMS5003;32299;53.366;-1.544;2022-12-11T02:29:20;62;46;
46573;PMS5003;32299;53.366;-1.544;2022-12-11T02:31:52;86;56;
46573;PMS5003;32299;53.366;-1.544;2022-12-11T02:34:24;77;55;
46573;PMS5003;32299;53.366;-1.544;2022-12-11T02:36:59;71;53;
46573;PMS5003;32299;53.366;-1.544;2022-12-11T02:39:32;64;51;
46573;PMS5003;32299;53.366;-1.544;2022-12-11T02:42:03;71;52;
46573;PMS5003;32299;53.366;-1.544;2022-12-11T02:44:32;75;50;
46573;PMS5003;32299;53.366;-1.544;2022-12-11T02:47:01;79;53;
46573;PMS5003;32299;53.366;-1.544;2022-12-11T02:49:32;71;50;
46573;PMS5003;32299;53.366;-1.544;2022-12-11T02:51:59;78;55;
46573;PMS5003;32299;53.366;-1.544;2022-12-11T02:54:28;67;50;
46573;PMS5003;32299;53.366;-1.544;2022-12-11T02:57:01;58;51;
46573;PMS5003;32299;53.366;-1.544;2022-12-11T02:59:38;67;51;
46573;PMS5003;32299;53.366;-1.544;2022-12-11T03:02:07;78;53;
46573;PMS5003;32299;53.366;-1.544;2022-12-11T03:04:34;52;45;
46573;PMS5003;32299;53.366;-1.544;2022-12-11T03:07:03;61;48;
46573;PMS5003;32299;53.366;-1.544;2022-12-11T03:09:35;62;44;
46573;PMS5003;32299;53.366;-1.544;2022-12-11T03:12:02;46;43;
46573;PMS5003;32299;53.366;-1.544;2022-12-11T03:14:29;48;43;
46573;PMS5003;32299;53.366;-1.544;2022-12-11T03:16:58;60;40;
46573;PMS5003;32299;53.366;-1.544;2022-12-11T03:19:33;51;36;
46573;PMS5003;32299;53.366;-1.544;2022-12-11T03:22:03;59;39;
46573;PMS5003;32299;53.366;-1.544;2022-12-11T03:24:37;58;42;
46573;PMS5003;32299;53.366;-1.544;2022-12-11T03:27:10;45;38;
46573;PMS5003;32299;53.366;-1.544;2022-12-11T03:29:44;50;37;
46573;PMS5003;32299;53.366;-1.544;2022-12-11T03:32:20;55;34;
46573;PMS5003;32299;53.366;-1.544;2022-12-11T03:34:51;49;35;
46573;PMS5003;32299;53.366;-1.544;2022-12-11T03:37:22;46;34;
46573;PMS5003;32299;53.366;-1.544;2022-12-11T03:39:54;67;43;
46573;PMS5003;32299;53.366;-1.544;2022-12-11T03:42:26;38;34;
46573;PMS5003;32299;53.366;-1.544;2022-12-11T03:44:54;53;36;
46573;PMS5003;32299;53.366;-1.544;2022-12-11T03:47:25;43;36;
46573;PMS5003;32299;53.366;-1.544;2022-12-11T03:49:55;65;37;
46573;PMS5003;32299;53.366;-1.544;2022-12-11T03:52:24;50;34;
46573;PMS5003;32299;53.366;-1.544;2022-12-11T03:54:53;54;38;
46573;PMS5003;32299;53.366;-1.544;2022-12-11T03:57:25;61;35;
46573;PMS5003;32299;53.366;-1.544;2022-12-11T03:59:56;63;38;
46573;PMS5003;32299;53.366;-1.544;2022-12-11T04:02:24;54;36;
46573;PMS5003;32299;53.366;-1.544;2022-12-11T04:04:53;57;42;
46573;PMS5003;32299;53.366;-1.544;2022-12-11T04:07:27;68;43;
46573;PMS5003;32299;53.366;-1.544;2022-12-11T04:09:54;65;44;
46573;PMS5003;32299;53.366;-1.544;2022-12-11T04:12:21;53;41;
46573;PMS5003;32299;53.366;-1.544;2022-12-11T04:14:49;53;41;
46573;PMS5003;32299;53.366;-1.544;2022-12-11T04:17:16;51;35;
46573;PMS5003;32299;53.366;-1.544;2022-12-11T04:19:43;44;33;
46573;PMS5003;32299;53.366;-1.544;2022-12-11T04:22:10;35;33;
46573;PMS5003;32299;53.366;-1.544;2022-12-11T04:24:38;61;40;
46573;PMS5003;32299;53.366;-1.544;2022-12-11T04:27:05;48;34;
46573;PMS5003;32299;53.366;-1.544;2022-12-11T04:29:32;61;37;
46573;PMS5003;32299;53.366;-1.544;2022-12-11T04:32:00;47;37;
46573;PMS5003;32299;53.366;-1.544;2022-12-11T04:34:27;46;37;
46573;PMS5003;32299;53.366;-1.544;2022-12-11T04:36:55;62;36;
46573;PMS5003;32299;53.366;-1.544;2022-12-11T04:39:23;69;43;
46573;PMS5003;32299;53.366;-1.544;2022-12-11T04:41:50;36;32;
46573;PMS5003;32299;53.366;-1.544;2022-12-11T04:44:17;60;44;
46573;PMS5003;32299;53.366;-1.544;2022-12-11T04:46:44;51;36;
46573;PMS5003;32299;53.366;-1.544;2022-12-11T04:49:11;44;38;
46573;PMS5003;32299;53.366;-1.544;2022-12-11T04:51:38;61;40;
46573;PMS5003;32299;53.366;-1.544;2022-12-11T04:54:06;46;33;
46573;PMS5003;32299;53.366;-1.544;2022-12-11T04:56:33;46;32;
46573;PMS5003;32299;53.366;-1.544;2022-12-11T04:59:00;56;36;
46573;PMS5003;32299;53.366;-1.544;2022-12-11T05:01:28;50;32;
46573;PMS5003;32299;53.366;-1.544;2022-12-11T05:03:55;38;28;
46573;PMS5003;32299;53.366;-1.544;2022-12-11T05:06:24;35;28;
46573;PMS5003;32299;53.366;-1.544;2022-12-11T05:08:52;45;28;
46573;PMS5003;32299;53.366;-1.544;2022-12-11T05:11:19;48;29;
46573;PMS5003;32299;53.366;-1.544;2022-12-11T05:13:46;49;29;
46573;PMS5003;32299;53.366;-1.544;2022-12-11T05:16:14;51;32;
46573;PMS5003;32299;53.366;-1.544;2022-12-11T05:18:42;38;32;
46573;PMS5003;32299;53.366;-1.544;2022-12-11T05:21:11;36;28;
46573;PMS5003;32299;53.366;-1.544;2022-12-11T05:23:40;38;33;
46573;PMS5003;32299;53.366;-1.544;2022-12-11T05:26:10;42;27;
46573;PMS5003;32299;53.366;-1.544;2022-12-11T05:28:39;33;26;
46573;PMS5003;32299;53.366;-1.544;2022-12-11T05:31:07;30;27;
46573;PMS5003;32299;53.366;-1.544;2022-12-11T05:33:37;41;28;
46573;PMS5003;32299;53.366;-1.544;2022-12-11T05:36:05;55;28;
46573;PMS5003;32299;53.366;-1.544;2022-12-11T05:38:33;43;27;
46573;PMS5003;32299;53.366;-1.544;2022-12-11T05:41:01;38;34;
46573;PMS5003;32299;53.366;-1.544;2022-12-11T05:43:31;49;28;
46573;PMS5003;32299;53.366;-1.544;2022-12-11T05:46:04;43;28;
46573;PMS5003;32299;53.366;-1.544;2022-12-11T05:48:32;46;30;
46573;PMS5003;32299;53.366;-1.544;2022-12-11T05:51:00;58;37;
46573;PMS5003;32299;53.366;-1.544;2022-12-11T05:53:29;42;35;
46573;PMS5003;32299;53.366;-1.544;2022-12-11T05:56:00;40;32;
46573;PMS5003;32299;53.366;-1.544;2022-12-11T05:58:27;55;33;
46573;PMS5003;32299;53.366;-1.544;2022-12-11T06:00:55;53;35;
46573;PMS5003;32299;53.366;-1.544;2022-12-11T06:03:22;50;38;
46573;PMS5003;32299;53.366;-1.544;2022-12-11T06:05:49;59;34;
46573;PMS5003;32299;53.366;-1.544;2022-12-11T06:08:17;52;33;
46573;PMS5003;32299;53.366;-1.544;2022-12-11T06:10:44;48;34;
46573;PMS5003;32299;53.366;-1.544;2022-12-11T06:13:11;41;34;
46573;PMS5003;32299;53.366;-1.544;2022-12-11T06:15:38;46;32;
46573;PMS5003;32299;53.366;-1.544;2022-12-11T06:18:06;45;27;
46573;PMS5003;32299;53.366;-1.544;2022-12-11T06:20:33;49;34;
46573;PMS5003;32299;53.366;-1.544;2022-12-11T06:23:00;49;32;
46573;PMS5003;32299;53.366;-1.544;2022-12-11T06:25:28;62;35;
46573;PMS5003;32299;53.366;-1.544;2022-12-11T06:27:55;50;30;
46573;PMS5003;32299;53.366;-1.544;2022-12-11T06:30:23;56;40;
46573;PMS5003;32299;53.366;-1.544;2022-12-11T06:32:50;45;32;
46573;PMS5003;32299;53.366;-1.544;2022-12-11T06:35:17;45;33;
46573;PMS5003;32299;53.366;-1.544;2022-12-11T06:37:45;42;32;
46573;PMS5003;32299;53.366;-1.544;2022-12-11T06:40:12;45;28;
46573;PMS5003;32299;53.366;-1.544;2022-12-11T06:42:39;51;34;
46573;PMS5003;32299;53.366;-1.544;2022-12-11T06:45:07;40;33;
46573;PMS5003;32299;53.366;-1.544;2022-12-11T06:47:35;46;33;
46573;PMS5003;32299;53.366;-1.544;2022-12-11T06:50:02;44;33;
46573;PMS5003;32299;53.366;-1.544;2022-12-11T06:52:30;44;33;
46573;PMS5003;32299;53.366;-1.544;2022-12-11T06:54:57;44;31;
46573;PMS5003;32299;53.366;-1.544;2022-12-11T06:57:24;51;29;
46573;PMS5003;32299;53.366;-1.544;2022-12-11T06:59:52;36;29;
46573;PMS5003;32299;53.366;-1.544;2022-12-11T07:02:18;35;29;
46573;PMS5003;32299;53.366;-1.544;2022-12-11T07:04:46;55;26;
46573;PMS5003;32299;53.366;-1.544;2022-12-11T07:07:13;43;30;
46573;PMS5003;32299;53.366;-1.544;2022-12-11T07:09:41;36;28;
46573;PMS5003;32299;53.366;-1.544;2022-12-11T07:12:08;47;31;
46573;PMS5003;32299;53.366;-1.544;2022-12-11T07:14:36;48;28;
46573;PMS5003;32299;53.366;-1.544;2022-12-11T07:17:03;43;24;
46573;PMS5003;32299;53.366;-1.544;2022-12-11T07:19:31;41;29;
46573;PMS5003;32299;53.366;-1.544;2022-12-11T07:21:57;50;25;
46573;PMS5003;32299;53.366;-1.544;2022-12-11T07:24:25;36;24;
46573;PMS5003;32299;53.366;-1.544;2022-12-11T07:26:52;36;29;
46573;PMS5003;32299;53.366;-1.544;2022-12-11T07:29:18;44;32;
46573;PMS5003;32299;53.366;-1.544;2022-12-11T07:31:46;48;27;
46573;PMS5003;32299;53.366;-1.544;2022-12-11T07:34:13;46;33;
46573;PMS5003;32299;53.366;-1.544;2022-12-11T07:36:41;35;27;
46573;PMS5003;32299;53.366;-1.544;2022-12-11T07:39:09;46;28;
46573;PMS5003;32299;53.366;-1.544;2022-12-11T07:41:37;51;30;
46573;PMS5003;32299;53.366;-1.544;2022-12-11T07:44:05;51;29;
46573;PMS5003;32299;53.366;-1.544;2022-12-11T07:46:32;44;29;
46573;PMS5003;32299;53.366;-1.544;2022-12-11T07:49:00;33;26;
46573;PMS5003;32299;53.366;-1.544;2022-12-11T07:51:28;32;30;
46573;PMS5003;32299;53.366;-1.544;2022-12-11T07:53:57;44;29;
46573;PMS5003;32299;53.366;-1.544;2022-12-11T07:56:25;46;29;
46573;PMS5003;32299;53.366;-1.544;2022-12-11T07:58:54;45;31;
46573;PMS5003;32299;53.366;-1.544;2022-12-11T08:01:23;49;26;
46573;PMS5003;32299;53.366;-1.544;2022-12-11T08:03:52;54;33;
46573;PMS5003;32299;53.366;-1.544;2022-12-11T08:06:23;46;31;
46573;PMS5003;32299;53.366;-1.544;2022-12-11T08:08:52;25;25;
46573;PMS5003;32299;53.366;-1.544;2022-12-11T08:11:19;38;26;
46573;PMS5003;32299;53.366;-1.544;2022-12-11T08:13:48;37;26;
46573;PMS5003;32299;53.366;-1.544;2022-12-11T08:16:16;48;31;
46573;PMS5003;32299;53.366;-1.544;2022-12-11T08:18:44;55;25;
46573;PMS5003;32299;53.366;-1.544;2022-12-11T08:21:14;47;28;
46573;PMS5003;32299;53.366;-1.544;2022-12-11T08:23:42;59;34;
46573;PMS5003;32299;53.366;-1.544;2022-12-11T08:26:11;41;28;
46573;PMS5003;32299;53.366;-1.544;2022-12-11T08:28:40;49;27;
46573;PMS5003;32299;53.366;-1.544;2022-12-11T08:31:08;44;33;
46573;PMS5003;32299;53.366;-1.544;2022-12-11T08:33:38;51;31;
46573;PMS5003;32299;53.366;-1.544;2022-12-11T08:36:07;40;29;
46573;PMS5003;32299;53.366;-1.544;2022-12-11T08:38:37;36;28;
46573;PMS5003;32299;53.366;-1.544;2022-12-11T08:41:07;40;27;
46573;PMS5003;32299;53.366;-1.544;2022-12-11T08:43:36;39;28;
46573;PMS5003;32299;53.366;-1.544;2022-12-11T08:46:04;32;23;
46573;PMS5003;32299;53.366;-1.544;2022-12-11T08:48:31;48;28;
46573;PMS5003;32299;53.366;-1.544;2022-12-11T08:50:59;26;22;
46573;PMS5003;32299;53.366;-1.544;2022-12-11T08:53:26;28;25;
46573;PMS5003;32299;53.366;-1.544;2022-12-11T08:55:54;42;26;
46573;PMS5003;32299;53.366;-1.544;2022-12-11T08:58:26;39;28;
46573;PMS5003;32299;53.366;-1.544;2022-12-11T09:00:53;48;28;
46573;PMS5003;32299;53.366;-1.544;2022-12-11T09:03:20;35;26;
46573;PMS5003;32299;53.366;-1.544;2022-12-11T09:05:48;49;29;
46573;PMS5003;32299;53.366;-1.544;2022-12-11T09:08:15;48;27;
46573;PMS5003;32299;53.366;-1.544;2022-12-11T09:10:42;44;31;
46573;PMS5003;32299;53.366;-1.544;2022-12-11T09:13:09;42;31;
46573;PMS5003;32299;53.366;-1.544;2022-12-11T09:15:38;36;27;
46573;PMS5003;32299;53.366;-1.544;2022-12-11T09:18:06;40;27;
46573;PMS5003;32299;53.366;-1.544;2022-12-11T09:20:34;42;28;
46573;PMS5003;32299;53.366;-1.544;2022-12-11T09:23:00;48;28;
46573;PMS5003;32299;53.366;-1.544;2022-12-11T09:25:28;46;33;
46573;PMS5003;32299;53.366;-1.544;2022-12-11T09:27:55;38;28;
46573;PMS5003;32299;53.366;-1.544;2022-12-11T09:30:22;50;32;
46573;PMS5003;32299;53.366;-1.544;2022-12-11T09:32:49;28;19;
46573;PMS5003;32299;53.366;-1.544;2022-12-11T09:35:16;43;25;
46573;PMS5003;32299;53.366;-1.544;2022-12-11T09:37:43;27;26;
46573;PMS5003;32299;53.366;-1.544;2022-12-11T09:40:11;34;27;
46573;PMS5003;32299;53.366;-1.544;2022-12-11T09:42:46;55;30;
46573;PMS5003;32299;53.366;-1.544;2022-12-11T09:45:18;48;25;
46573;PMS5003;32299;53.366;-1.544;2022-12-11T09:47:47;32;27;
46573;PMS5003;32299;53.366;-1.544;2022-12-11T09:50:19;43;28;
46573;PMS5003;32299;53.366;-1.544;2022-12-11T09:52:53;40;25;
46573;PMS5003;32299;53.366;-1.544;2022-12-11T09:55:30;46;26;
46573;PMS5003;32299;53.366;-1.544;2022-12-11T09:58:06;48;29;
46573;PMS5003;32299;53.366;-1.544;2022-12-11T10:00:43;43;32;
46573;PMS5003;32299;53.366;-1.544;2022-12-11T10:03:20;48;30;
46573;PMS5003;32299;53.366;-1.544;2022-12-11T10:06:00;25;23;
46573;PMS5003;32299;53.366;-1.544;2022-12-11T10:08:34;45;30;
46573;PMS5003;32299;53.366;-1.544;2022-12-11T10:11:19;31;25;
46573;PMS5003;32299;53.366;-1.544;2022-12-11T10:14:00;39;25;
46573;PMS5003;32299;53.366;-1.544;2022-12-11T10:16:34;38;24;
46573;PMS5003;32299;53.366;-1.544;2022-12-11T10:19:08;32;26;
46573;PMS5003;32299;53.366;-1.544;2022-12-11T10:21:42;41;26;
46573;PMS5003;32299;53.366;-1.544;2022-12-11T10:24:13;41;26;
46573;PMS5003;32299;53.366;-1.544;2022-12-11T10:26:46;47;26;
46573;PMS5003;32299;53.366;-1.544;2022-12-11T10:29:14;33;26;
46573;PMS5003;32299;53.366;-1.544;2022-12-11T10:31:43;36;21;
46573;PMS5003;32299;53.366;-1.544;2022-12-11T10:34:17;27;24;
46573;PMS5003;32299;53.366;-1.544;2022-12-11T10:36:51;39;25;
46573;PMS5003;32299;53.366;-1.544;2022-12-11T10:39:20;47;29;
46573;PMS5003;32299;53.366;-1.544;2022-12-11T10:41:49;23;20;
46573;PMS5003;32299;53.366;-1.544;2022-12-11T10:44:18;35;22;
46573;PMS5003;32299;53.366;-1.544;2022-12-11T10:46:48;44;24;
46573;PMS5003;32299;53.366;-1.544;2022-12-11T10:49:28;33;20;
46573;PMS5003;32299;53.366;-1.544;2022-12-11T10:51:57;45;27;
46573;PMS5003;32299;53.366;-1.544;2022-12-11T10:54:28;29;21;
46573;PMS5003;32299;53.366;-1.544;2022-12-11T10:56:59;28;26;
46573;PMS5003;32299;53.366;-1.544;2022-12-11T10:59:30;37;25;
46573;PMS5003;32299;53.366;-1.544;2022-12-11T11:02:01;32;21;
46573;PMS5003;32299;53.366;-1.544;2022-12-11T11:04:32;28;25;
46573;PMS5003;32299;53.366;-1.544;2022-12-11T11:07:07;36;26;
46573;PMS5003;32299;53.366;-1.544;2022-12-11T11:09:38;37;23;
46573;PMS5003;32299;53.366;-1.544;2022-12-11T11:12:16;25;25;
46573;PMS5003;32299;53.366;-1.544;2022-12-11T11:14:45;47;30;
46573;PMS5003;32299;53.366;-1.544;2022-12-11T11:17:13;42;28;
46573;PMS5003;32299;53.366;-1.544;2022-12-11T11:19:44;40;25;
46573;PMS5003;32299;53.366;-1.544;2022-12-11T11:22:13;41;24;
46573;PMS5003;32299;53.366;-1.544;2022-12-11T11:24:43;27;24;
46573;PMS5003;32299;53.366;-1.544;2022-12-11T11:27:12;24;19;
46573;PMS5003;32299;53.366;-1.544;2022-12-11T11:29:50;37;21;
46573;PMS5003;32299;53.366;-1.544;2022-12-11T11:32:20;35;18;
46573;PMS5003;32299;53.366;-1.544;2022-12-11T11:34:51;24;21;
46573;PMS5003;32299;53.366;-1.544;2022-12-11T11:37:22;19;17;
46573;PMS5003;32299;53.366;-1.544;2022-12-11T11:39:56;35;21;
46573;PMS5003;32299;53.366;-1.544;2022-12-11T11:42:31;18;17;
46573;PMS5003;32299;53.366;-1.544;2022-12-11T11:45:09;38;22;
46573;PMS5003;32299;53.366;-1.544;2022-12-11T11:47:42;26;16;
46573;PMS5003;32299;53.366;-1.544;2022-12-11T11:50:25;24;20;
46573;PMS5003;32299;53.366;-1.544;2022-12-11T11:53:02;34;20;
46573;PMS5003;32299;53.366;-1.544;2022-12-11T11:55:40;27;18;
46573;PMS5003;32299;53.366;-1.544;2022-12-11T11:58:16;20;20;
46573;PMS5003;32299;53.366;-1.544;2022-12-11T12:00:46;24;18;
46573;PMS5003;32299;53.366;-1.544;2022-12-11T12:03:15;34;21;
46573;PMS5003;32299;53.366;-1.544;2022-12-11T12:05:45;21;19;
46573;PMS5003;32299;53.366;-1.544;2022-12-11T12:08:22;22;21;
46573;PMS5003;32299;53.366;-1.544;2022-12-11T12:11:00;22;17;
46573;PMS5003;32299;53.366;-1.544;2022-12-11T12:13:36;18;18;
46573;PMS5003;32299;53.366;-1.544;2022-12-11T12:16:10;29;17;
46573;PMS5003;32299;53.366;-1.544;2022-12-11T12:18:48;22;19;
46573;PMS5003;32299;53.366;-1.544;2022-12-11T12:21:26;21;19;
46573;PMS5003;32299;53.366;-1.544;2022-12-11T12:24:05;37;24;
46573;PMS5003;32299;53.366;-1.544;2022-12-11T12:26:42;24;19;
46573;PMS5003;32299;53.366;-1.544;2022-12-11T12:29:19;30;17;
46573;PMS5003;32299;53.366;-1.544;2022-12-11T12:32:01;24;19;
46573;PMS5003;32299;53.366;-1.544;2022-12-11T12:34:38;25;20;
46573;PMS5003;32299;53.366;-1.544;2022-12-11T12:37:17;33;21;
46573;PMS5003;32299;53.366;-1.544;2022-12-11T12:39:55;27;20;
46573;PMS5003;32299;53.366;-1.544;2022-12-11T12:42:34;38;22;
46573;PMS5003;32299;53.366;-1.544;2022-12-11T12:45:15;24;20;
46573;PMS5003;32299;53.366;-1.544;2022-12-11T12:47:51;24;20;
46573;PMS5003;32299;53.366;-1.544;2022-12-11T12:50:19;35;22;
46573;PMS5003;32299;53.366;-1.544;2022-12-11T12:52:49;24;18;
46573;PMS5003;32299;53.366;-1.544;2022-12-11T12:55:18;19;19;
46573;PMS5003;32299;53.366;-1.544;2022-12-11T12:57:48;28;22;
46573;PMS5003;32299;53.366;-1.544;2022-12-11T13:00:26;30;25;
46573;PMS5003;32299;53.366;-1.544;2022-12-11T13:02:55;42;26;
46573;PMS5003;32299;53.366;-1.544;2022-12-11T13:05:24;19;19;
46573;PMS5003;32299;53.366;-1.544;2022-12-11T13:07:55;32;20;
46573;PMS5003;32299;53.366;-1.544;2022-12-11T13:10:27;22;21;
46573;PMS5003;32299;53.366;-1.544;2022-12-11T13:12:57;33;21;
46573;PMS5003;32299;53.366;-1.544;2022-12-11T13:15:25;22;19;
46573;PMS5003;32299;53.366;-1.544;2022-12-11T13:17:56;25;21;
46573;PMS5003;32299;53.366;-1.544;2022-12-11T13:20:25;26;20;
46573;PMS5003;32299;53.366;-1.544;2022-12-11T13:22:55;33;21;
46573;PMS5003;32299;53.366;-1.544;2022-12-11T13:25:45;44;21;
46573;PMS5003;32299;53.366;-1.544;2022-12-11T13:28:32;19;19;
46573;PMS5003;32299;53.366;-1.544;2022-12-11T13:31:26;37;21;
46573;PMS5003;32299;53.366;-1.544;2022-12-11T13:34:06;46;22;
46573;PMS5003;32299;53.366;-1.544;2022-12-11T13:36:40;35;25;
46573;PMS5003;32299;53.366;-1.544;2022-12-11T13:39:15;37;26;
46573;PMS5003;32299;53.366;-1.544;2022-12-11T13:41:44;44;28;
46573;PMS5003;32299;53.366;-1.544;2022-12-11T13:44:15;49;30;
46573;PMS5003;32299;53.366;-1.544;2022-12-11T13:46:46;51;35;
46573;PMS5003;32299;53.366;-1.544;2022-12-11T13:49:17;40;25;
46573;PMS5003;32299;53.366;-1.544;2022-12-11T13:51:56;46;31;
46573;PMS5003;32299;53.366;-1.544;2022-12-11T13:54:26;45;29;
46573;PMS5003;32299;53.366;-1.544;2022-12-11T13:56:55;35;26;
46573;PMS5003;32299;53.366;-1.544;2022-12-11T13:59:28;21;18;
46573;PMS5003;32299;53.366;-1.544;2022-12-11T14:01:59;18;17;
46573;PMS5003;32299;53.366;-1.544;2022-12-11T14:04:31;33;22;
46573;PMS5003;32299;53.366;-1.544;2022-12-11T14:07:00;19;19;
46573;PMS5003;32299;53.366;-1.544;2022-12-11T14:09:32;20;18;
46573;PMS5003;32299;53.366;-1.544;2022-12-11T14:11:58;37;21;
46573;PMS5003;32299;53.366;-1.544;2022-12-11T14:14:28;21;17;
46573;PMS5003;32299;53.366;-1.544;2022-12-11T14:17:04;22;19;
46573;PMS5003;32299;53.366;-1.544;2022-12-11T14:19:32;21;18;
46573;PMS5003;32299;53.366;-1.544;2022-12-11T14:22:00;18;17;
46573;PMS5003;32299;53.366;-1.544;2022-12-11T14:24:28;20;17;
46573;PMS5003;32299;53.366;-1.544;2022-12-11T14:26:56;27;25;
46573;PMS5003;32299;53.366;-1.544;2022-12-11T14:29:25;34;22;
46573;PMS5003;32299;53.366;-1.544;2022-12-11T14:31:54;26;21;
46573;PMS5003;32299;53.366;-1.544;2022-12-11T14:34:26;25;21;
46573;PMS5003;32299;53.366;-1.544;2022-12-11T14:36:57;29;23;
46573;PMS5003;32299;53.366;-1.544;2022-12-11T14:39:28;42;25;
46573;PMS5003;32299;53.366;-1.544;2022-12-11T14:42:01;31;23;
46573;PMS5003;32299;53.366;-1.544;2022-12-11T14:44:34;38;22;
46573;PMS5003;32299;53.366;-1.544;2022-12-11T14:47:10;41;27;
46573;PMS5003;32299;53.366;-1.544;2022-12-11T14:49:42;35;27;
46573;PMS5003;32299;53.366;-1.544;2022-12-11T14:52:16;42;23;
46573;PMS5003;32299;53.366;-1.544;2022-12-11T14:54:47;25;23;
46573;PMS5003;32299;53.366;-1.544;2022-12-11T14:57:18;27;25;
46573;PMS5003;32299;53.366;-1.544;2022-12-11T14:59:50;35;31;
46573;PMS5003;32299;53.366;-1.544;2022-12-11T15:02:21;43;28;
46573;PMS5003;32299;53.366;-1.544;2022-12-11T15:05:01;50;33;
46573;PMS5003;32299;53.366;-1.544;2022-12-11T15:07:37;27;24;
46573;PMS5003;32299;53.366;-1.544;2022-12-11T15:10:19;43;30;
46573;PMS5003;32299;53.366;-1.544;2022-12-11T15:12:48;53;35;
46573;PMS5003;32299;53.366;-1.544;2022-12-11T15:15:15;47;31;
46573;PMS5003;32299;53.366;-1.544;2022-12-11T15:17:43;41;33;
46573;PMS5003;32299;53.366;-1.544;2022-12-11T15:20:20;51;37;
46573;PMS5003;32299;53.366;-1.544;2022-12-11T15:22:50;55;36;
46573;PMS5003;32299;53.366;-1.544;2022-12-11T15:25:18;49;40;
46573;PMS5003;32299;53.366;-1.544;2022-12-11T15:27:49;46;34;
46573;PMS5003;32299;53.366;-1.544;2022-12-11T15:30:23;40;27;
46573;PMS5003;32299;53.366;-1.544;2022-12-11T15:33:01;45;29;
46573;PMS5003;32299;53.366;-1.544;2022-12-11T15:35:30;38;26;
46573;PMS5003;32299;53.366;-1.544;2022-12-11T15:37:58;27;25;
46573;PMS5003;32299;53.366;-1.544;2022-12-11T15:40:25;30;25;
46573;PMS5003;32299;53.366;-1.544;2022-12-11T15:42:53;27;22;
46573;PMS5003;32299;53.366;-1.544;2022-12-11T15:45:21;27;20;
46573;PMS5003;32299;53.366;-1.544;2022-12-11T15:47:51;35;28;
46573;PMS5003;32299;53.366;-1.544;2022-12-11T15:50:19;25;21;
46573;PMS5003;32299;53.366;-1.544;2022-12-11T15:52:49;33;20;
46573;PMS5003;32299;53.366;-1.544;2022-12-11T15:55:18;28;20;
46573;PMS5003;32299;53.366;-1.544;2022-12-11T15:57:47;26;24;
46573;PMS5003;32299;53.366;-1.544;2022-12-11T16:00:21;33;27;
46573;PMS5003;32299;53.366;-1.544;2022-12-11T16:02:50;38;25;
46573;PMS5003;32299;53.366;-1.544;2022-12-11T16:05:17;42;26;
46573;PMS5003;32299;53.366;-1.544;2022-12-11T16:07:45;29;22;
46573;PMS5003;32299;53.366;-1.544;2022-12-11T16:10:14;40;30;
46573;PMS5003;32299;53.366;-1.544;2022-12-11T16:12:43;56;33;
46573;PMS5003;32299;53.366;-1.544;2022-12-11T16:15:11;41;38;
46573;PMS5003;32299;53.366;-1.544;2022-12-11T16:17:39;45;35;
46573;PMS5003;32299;53.366;-1.544;2022-12-11T16:20:07;49;35;
46573;PMS5003;32299;53.366;-1.544;2022-12-11T16:22:36;61;44;